Time;durP1;ratioP1;P1;durP2;ratioP2;P2;SDS_P1;SDS_P2;PMS_P1;PMS_P2;Temp;Humidity;BMP_temperature;BMP_pressure;BME280_temperature;BME280_humidity;BME280_pressure;Samples;Min_cycle;Max_cycle;Signal;HPM_P1;HPM_P2
2022/01/28 00:00:19;;;;;;;17.23;3.42;;;4.80;99.90;;;;;;5061579;28;20052;-61
2022/01/28 00:02:57;;;;;;;20.90;3.47;;;4.80;99.90;;;;;;5061942;28;20120;-60
2022/01/28 00:05:23;;;;;;;19.25;3.92;;;4.80;99.90;;;;;;5042926;28;20041;-61
2022/01/28 00:07:50;;;;;;;23.08;4.57;;;4.70;99.90;;;;;;5061720;28;20083;-61
2022/01/28 00:10:17;;;;;;;21.98;4.22;;;4.70;99.90;;;;;;5061268;28;20044;-61
2022/01/28 00:15:44;;;;;;;24.92;4.63;;;4.80;99.90;;;;;;5057757;28;20044;-60
2022/01/28 00:39:42;;;;;;;16.35;2.88;;;4.90;99.90;;;;;;5060651;28;20082;-61
2022/01/28 00:42:08;;;;;;;20.60;3.60;;;5.40;99.90;;;;;;5060593;28;20041;-61
2022/01/28 00:44:34;;;;;;;22.75;3.88;;;4.90;99.90;;;;;;5060816;28;20045;-61
2022/01/28 00:46:59;;;;;;;24.52;4.05;;;5.00;99.90;;;;;;5025928;28;20139;-61
2022/01/28 00:49:25;;;;;;;24.33;3.45;;;5.00;99.90;;;;;;5060925;28;20036;-60
2022/01/28 00:51:51;;;;;;;24.92;3.88;;;5.10;99.90;;;;;;5041803;28;20119;-60
2022/01/28 00:54:18;;;;;;;24.73;4.40;;;5.20;99.90;;;;;;5061063;28;20063;-60
2022/01/28 00:56:45;;;;;;;22.08;3.72;;;5.20;99.90;;;;;;5042581;28;20045;-60
2022/01/28 00:59:11;;;;;;;20.83;2.97;;;5.30;99.90;;;;;;5060538;28;20074;-61
2022/01/28 01:01:37;;;;;;;20.90;5.18;;;5.30;99.90;;;;;;5060193;28;20064;-60
2022/01/28 01:04:03;;;;;;;14.68;2.75;;;5.20;99.90;;;;;;5042112;28;20045;-60
2022/01/28 01:06:29;;;;;;;24.55;3.75;;;5.20;99.90;;;;;;5060650;28;20104;-61
2022/01/28 01:08:55;;;;;;;16.88;3.28;;;5.30;99.90;;;;;;5060265;28;20073;-61
2022/01/28 01:11:22;;;;;;;15.63;3.05;;;5.10;99.90;;;;;;5028076;28;20047;-60
2022/01/28 01:13:49;;;;;;;19.40;3.50;;;5.00;99.90;;;;;;5100223;28;20044;-61
2022/01/28 01:16:21;;;;;;;17.35;3.40;;;5.10;99.90;;;;;;5100492;28;20050;-61
2022/01/28 01:18:53;;;;;;;22.13;5.30;;;5.10;99.90;;;;;;5100295;28;20059;-61
2022/01/28 01:21:23;;;;;;;26.42;4.30;;;5.10;99.90;;;;;;5099832;28;20040;-61
2022/01/28 01:23:55;;;;;;;19.48;3.50;;;5.20;99.90;;;;;;5065792;28;20044;-61
2022/01/28 01:26:30;;;;;;;21.92;4.10;;;5.20;99.90;;;;;;5100327;28;20055;-62
2022/01/28 01:28:56;;;;;;;19.40;3.75;;;5.10;99.90;;;;;;5063227;28;20090;-62
2022/01/28 01:31:22;;;;;;;22.40;3.75;;;5.00;99.90;;;;;;5079784;28;20059;-62
2022/01/28 01:33:58;;;;;;;19.45;3.78;;;4.90;99.90;;;;;;5061424;28;20056;-62
2022/01/28 01:36:24;;;;;;;26.20;4.63;;;4.90;99.90;;;;;;5080182;28;20045;-61
2022/01/28 01:38:50;;;;;;;25.88;4.30;;;5.00;99.90;;;;;;5079603;28;20045;-61
2022/01/28 01:41:27;;;;;;;19.42;4.70;;;4.90;99.90;;;;;;5061975;28;20040;-62
2022/01/28 01:44:04;;;;;;;27.25;5.38;;;4.90;99.90;;;;;;5079332;28;20072;-62
2022/01/28 01:52:05;;;;;;;23.70;4.22;;;4.80;99.90;;;;;;5079231;28;20045;-62
2022/01/28 01:54:36;;;;;;;;;;;4.80;99.90;;;;;;5080279;28;20083;-61
2022/01/28 01:57:03;;;;;;;20.45;3.58;;;5.00;99.90;;;;;;5079314;28;19920;-61
2022/01/28 01:59:28;;;;;;;28.73;4.50;;;5.00;99.90;;;;;;5061269;28;20071;-60
2022/01/28 02:01:56;;;;;;;23.67;5.03;;;5.10;99.90;;;;;;5079152;28;20041;-61
2022/01/28 02:04:22;;;;;;;29.55;5.88;;;5.20;99.90;;;;;;5079191;28;20094;-61
2022/01/28 02:06:48;;;;;;;23.02;3.95;;;5.20;99.90;;;;;;5079827;28;20072;-60
2022/01/28 02:09:14;;;;;;;21.30;4.90;;;5.30;99.90;;;;;;5079003;28;20044;-61
2022/01/28 02:11:40;;;;;;;32.10;5.32;;;5.40;99.90;;;;;;5079502;28;20048;-60
2022/01/28 02:14:06;;;;;;;23.50;5.57;;;5.40;99.90;;;;;;5078619;28;20051;-61
2022/01/28 02:16:32;;;;;;;21.85;3.58;;;5.50;99.90;;;;;;5060735;28;20044;-60
2022/01/28 02:18:58;;;;;;;22.27;3.92;;;5.50;99.90;;;;;;5079023;28;20085;-60
2022/01/28 02:21:24;;;;;;;22.08;4.35;;;5.40;99.90;;;;;;5078734;28;20068;-61
2022/01/28 02:23:55;;;;;;;31.05;5.55;;;5.50;99.90;;;;;;5079595;28;20047;-60
2022/01/28 02:26:21;;;;;;;32.30;4.45;;;5.40;99.90;;;;;;5060621;28;20123;-61
2022/01/28 02:28:51;;;;;;;27.95;5.00;;;5.50;99.90;;;;;;5079324;28;20048;-60
2022/01/28 02:31:22;;;;;;;37.67;6.85;;;5.30;99.90;;;;;;5060495;28;20041;-61
2022/01/28 02:33:49;;;;;;;22.48;4.40;;;5.30;99.90;;;;;;5078977;28;20057;-61
2022/01/28 02:36:15;;;;;;;25.77;4.25;;;5.30;99.90;;;;;;5061193;28;20051;-60
2022/01/28 02:38:40;;;;;;;25.55;4.47;;;5.20;99.90;;;;;;5043989;28;20040;-61
2022/01/28 02:41:07;;;;;;;26.63;5.75;;;5.20;99.90;;;;;;5079299;28;20044;-61
2022/01/28 02:43:41;;;;;;;24.00;5.07;;;5.20;99.90;;;;;;5043899;28;20425;-61
2022/01/28 02:46:11;;;;;;;24.92;4.65;;;5.40;99.90;;;;;;5065480;28;20090;-60
2022/01/28 02:48:40;;;;;;;26.05;4.22;;;5.40;99.90;;;;;;5076964;28;20059;-59
2022/01/28 02:51:18;;;;;;;24.10;4.90;;;5.50;99.90;;;;;;5078700;28;20048;-61
2022/01/28 02:56:24;;;;;;;26.23;6.70;;;5.40;99.90;;;;;;5078363;28;20053;-61
2022/01/28 02:58:50;;;;;;;19.83;3.88;;;5.40;99.90;;;;;;5079049;28;20053;-60
2022/01/28 03:01:18;;;;;;;20.05;3.72;;;5.40;99.90;;;;;;5078336;28;20028;-61
2022/01/28 03:03:45;;;;;;;21.50;3.38;;;5.40;99.90;;;;;;5077121;28;20044;-61
2022/01/28 03:06:13;;;;;;;20.90;3.83;;;5.30;99.90;;;;;;5077360;28;20484;-60
2022/01/28 03:08:43;;;;;;;20.15;3.67;;;5.40;99.90;;;;;;5060450;28;20052;-60
2022/01/28 03:16:56;;;;;;;21.85;4.40;;;5.30;99.90;;;;;;5061721;28;20044;-61
2022/01/28 03:19:24;;;;;;;17.88;3.35;;;5.20;99.90;;;;;;5062379;28;20065;-60
2022/01/28 03:21:54;;;;;;;18.83;3.22;;;5.10;99.90;;;;;;5060889;28;20049;-60
2022/01/28 03:24:22;;;;;;;17.73;3.78;;;5.10;99.90;;;;;;5061667;28;20044;-60
2022/01/28 03:26:51;;;;;;;23.48;3.67;;;5.00;99.90;;;;;;5062855;28;20124;-61
2022/01/28 03:29:16;;;;;;;15.88;3.30;;;5.00;99.90;;;;;;5081289;28;20048;-61
2022/01/28 03:31:42;;;;;;;19.95;4.60;;;5.00;99.90;;;;;;5081869;28;20138;-60
2022/01/28 03:34:08;;;;;;;17.08;2.97;;;4.90;99.90;;;;;;5082134;28;20182;-60
2022/01/28 03:36:34;;;;;;;26.08;4.43;;;5.00;99.90;;;;;;5064310;28;20052;-61
2022/01/28 03:38:59;;;;;;;22.95;3.75;;;5.00;99.90;;;;;;5081961;28;20045;-61
2022/01/28 03:41:25;;;;;;;22.83;4.30;;;5.00;99.90;;;;;;5081074;28;20049;-61
2022/01/28 03:43:58;;;;;;;23.00;5.15;;;5.00;99.90;;;;;;5080167;28;20045;-61
2022/01/28 03:46:24;;;;;;;;;;;5.00;99.90;;;;;;5092815;28;20086;-61
2022/01/28 03:48:49;;;;;;;19.25;4.07;;;4.90;99.90;;;;;;5101932;28;19958;-61
2022/01/28 03:51:15;;;;;;;15.20;3.53;;;4.90;99.90;;;;;;5102009;28;20044;-61
2022/01/28 03:53:41;;;;;;;20.63;4.07;;;5.00;99.90;;;;;;5067496;28;20070;-61
2022/01/28 03:56:06;;;;;;;18.33;3.63;;;4.90;99.90;;;;;;5101993;28;20870;-61
2022/01/28 03:58:32;;;;;;;20.48;3.85;;;5.00;99.90;;;;;;5084369;28;20089;-61
2022/01/28 04:00:58;;;;;;;21.40;3.75;;;5.00;99.90;;;;;;5083374;28;20060;-61
2022/01/28 04:03:40;;;;;;;24.52;4.05;;;5.00;99.90;;;;;;5102039;28;20089;-60
2022/01/28 04:11:38;;;;;;;21.75;3.28;;;5.00;99.90;;;;;;5101704;28;20054;-60
2022/01/28 04:14:15;;;;;;;18.23;4.22;;;5.00;99.90;;;;;;5083819;28;20048;-60
2022/01/28 04:19:25;;;;;;;23.23;4.07;;;5.00;99.90;;;;;;5082853;28;20043;-60
2022/01/28 04:21:51;;;;;;;25.38;5.82;;;5.00;99.90;;;;;;5101169;28;20048;-60
2022/01/28 04:24:16;;;;;;;20.33;3.50;;;5.00;99.90;;;;;;5101956;28;20102;-60
2022/01/28 04:26:42;;;;;;;22.75;3.90;;;5.00;99.90;;;;;;5099873;28;20563;-60
2022/01/28 04:29:11;;;;;;;27.52;4.20;;;5.00;99.90;;;;;;5083286;28;20066;-60
2022/01/28 04:31:41;;;;;;;25.15;4.15;;;5.00;99.90;;;;;;5101355;28;20043;-61
2022/01/28 04:34:07;;;;;;;18.25;3.63;;;5.00;99.90;;;;;;5066748;28;20059;-61
2022/01/28 04:36:37;;;;;;;29.60;4.28;;;4.90;99.90;;;;;;5066355;28;20040;-61
2022/01/28 04:39:13;;;;;;;22.15;4.53;;;4.90;99.90;;;;;;5066915;28;20437;-61
2022/01/28 04:41:57;;;;;;;29.60;4.88;;;4.90;99.90;;;;;;5101476;28;20099;-61
2022/01/28 04:44:33;;;;;;;19.88;4.57;;;4.80;99.90;;;;;;5082642;28;20048;-61
2022/01/28 04:47:10;;;;;;;21.02;3.10;;;4.80;99.90;;;;;;5085555;28;20045;-61
2022/01/28 04:55:09;;;;;;;17.88;5.20;;;4.70;99.90;;;;;;5080893;28;20049;-61
2022/01/28 05:02:38;;;;;;;19.08;3.22;;;4.70;99.90;;;;;;5080888;28;20450;-61
2022/01/28 05:07:46;;;;;;;25.15;4.75;;;4.60;99.90;;;;;;5080471;28;20048;-62
2022/01/28 05:15:31;;;;;;;25.33;3.53;;;4.60;99.90;;;;;;5080653;28;20052;-61
2022/01/28 05:26:22;;;;;;;16.33;4.00;;;4.40;99.90;;;;;;5079864;28;20143;-59
2022/01/28 05:28:48;;;;;;;20.25;3.28;;;4.40;99.90;;;;;;5079893;28;20049;-61
2022/01/28 05:31:14;;;;;;;24.42;4.30;;;4.40;99.90;;;;;;5045110;28;20066;-61
2022/01/28 05:33:39;;;;;;;17.30;3.83;;;4.40;99.90;;;;;;5079786;28;20189;-61
2022/01/28 05:36:05;;;;;;;23.88;4.28;;;4.40;99.90;;;;;;5062023;28;20037;-61
2022/01/28 05:38:31;;;;;;;21.35;3.88;;;4.50;99.90;;;;;;5044719;28;20044;-61
2022/01/28 05:40:56;;;;;;;17.58;3.60;;;4.50;99.90;;;;;;5080373;28;20048;-61
2022/01/28 05:43:22;;;;;;;22.90;4.55;;;4.60;99.90;;;;;;5079243;28;20036;-61
2022/01/28 05:45:48;;;;;;;15.82;3.63;;;4.60;99.90;;;;;;5079916;28;20521;-61
2022/01/28 05:48:15;;;;;;;21.48;3.58;;;4.70;99.90;;;;;;5079241;28;20453;-61
2022/01/28 05:50:41;;;;;;;17.58;3.45;;;4.70;99.90;;;;;;5061765;28;20040;-60
2022/01/28 05:53:07;;;;;;;20.48;3.90;;;4.70;99.90;;;;;;5044898;28;20052;-61
2022/01/28 05:55:34;;;;;;;21.70;4.03;;;4.80;99.90;;;;;;5079242;28;20036;-61
2022/01/28 05:58:00;;;;;;;18.75;3.63;;;4.80;99.90;;;;;;5061584;28;20073;-61
2022/01/28 06:00:26;;;;;;;17.52;4.03;;;4.90;99.90;;;;;;5044564;28;20100;-61
2022/01/28 06:02:51;;;;;;;19.70;3.95;;;4.90;99.90;;;;;;5080017;28;20095;-61
2022/01/28 06:05:18;;;;;;;21.30;4.57;;;5.00;99.90;;;;;;5060803;28;20044;-61
2022/01/28 06:07:43;;;;;;;19.55;3.90;;;5.00;99.90;;;;;;5079295;28;20064;-61
2022/01/28 06:10:11;;;;;;;21.70;3.97;;;5.00;99.90;;;;;;5044464;28;20044;-61
2022/01/28 06:12:44;;;;;;;21.35;3.35;;;5.10;99.90;;;;;;5075253;28;20055;-61
2022/01/28 06:15:11;;;;;;;18.70;3.80;;;5.10;99.90;;;;;;5041687;28;20575;-61
2022/01/28 06:17:37;;;;;;;25.02;3.78;;;5.10;99.90;;;;;;5075648;28;20079;-61
2022/01/28 06:20:05;;;;;;;19.98;3.75;;;5.10;99.90;;;;;;5058235;28;20501;-62
2022/01/28 06:22:31;;;;;;;21.20;4.18;;;5.10;99.90;;;;;;5057665;28;20666;-61
2022/01/28 06:24:57;;;;;;;21.55;4.00;;;5.20;99.90;;;;;;5075640;28;20059;-61
2022/01/28 06:27:23;;;;;;;15.90;3.22;;;5.10;99.90;;;;;;5040932;28;20044;-61
2022/01/28 06:29:49;;;;;;;33.10;4.20;;;5.20;99.90;;;;;;5057618;28;20051;-61
2022/01/28 06:32:16;;;;;;;24.60;5.15;;;5.10;99.90;;;;;;5041651;28;20071;-61
2022/01/28 06:34:42;;;;;;;20.42;4.53;;;5.10;99.90;;;;;;5075377;28;20052;-61
2022/01/28 06:37:08;;;;;;;23.20;3.90;;;5.10;99.90;;;;;;5057863;28;20104;-61
2022/01/28 06:39:34;;;;;;;26.67;3.85;;;5.10;99.90;;;;;;5075424;28;20060;-61
2022/01/28 06:42:00;;;;;;;25.85;4.18;;;5.10;99.90;;;;;;5075631;28;20048;-61
2022/01/28 06:44:26;;;;;;;24.85;5.93;;;5.10;99.90;;;;;;5075412;28;20051;-61
2022/01/28 06:46:52;;;;;;;27.52;4.47;;;5.10;99.90;;;;;;5074801;28;20057;-61
2022/01/28 06:49:19;;;;;;;26.35;4.40;;;5.00;99.90;;;;;;5075101;28;20049;-60
2022/01/28 06:51:45;;;;;;;29.58;5.10;;;5.00;99.90;;;;;;5040277;28;20052;-61
2022/01/28 06:54:10;;;;;;;26.42;4.65;;;5.00;99.90;;;;;;5058219;28;20055;-61
2022/01/28 06:56:36;;;;;;;30.25;5.00;;;5.00;99.90;;;;;;5075288;28;20043;-61
2022/01/28 06:59:03;;;;;;;25.65;3.67;;;5.00;99.90;;;;;;5057210;28;20433;-61
2022/01/28 07:01:29;;;;;;;28.30;4.50;;;5.00;99.90;;;;;;5057179;28;20048;-61
2022/01/28 07:03:55;;;;;;;26.63;4.97;;;5.00;99.90;;;;;;5075238;28;20181;-61
2022/01/28 07:06:22;;;;;;;29.60;4.95;;;4.90;99.90;;;;;;5070198;28;20040;-61
2022/01/28 07:08:48;;;;;;;28.85;5.10;;;4.90;99.90;;;;;;5065750;28;20066;-61
2022/01/28 07:11:14;;;;;;;26.05;4.32;;;5.00;99.90;;;;;;5048190;28;20041;-61
2022/01/28 07:13:40;;;;;;;27.10;5.10;;;4.90;99.90;;;;;;5038328;28;20512;-61
2022/01/28 07:16:05;;;;;;;29.88;3.97;;;4.90;99.90;;;;;;5075268;28;20079;-61
2022/01/28 07:18:31;;;;;;;22.42;4.07;;;4.90;99.90;;;;;;5074858;28;20040;-60
2022/01/28 07:20:57;;;;;;;24.38;4.85;;;4.90;99.90;;;;;;5056416;28;20067;-61
2022/01/28 07:23:22;;;;;;;29.73;6.30;;;4.90;99.90;;;;;;5040464;28;20037;-61
2022/01/28 07:25:48;;;;;;;27.08;4.72;;;4.90;99.90;;;;;;5075031;28;20470;-61
2022/01/28 07:28:14;;;;;;;29.10;6.43;;;4.80;99.90;;;;;;5075606;28;20044;-61
2022/01/28 07:30:40;;;;;;;24.05;4.22;;;4.80;99.90;;;;;;5074841;28;20049;-61
2022/01/28 07:33:07;;;;;;;23.55;4.65;;;4.80;99.90;;;;;;5075416;28;20064;-61
2022/01/28 07:35:34;;;;;;;28.88;5.30;;;4.70;99.90;;;;;;5056455;28;20082;-61
2022/01/28 07:37:59;;;;;;;18.77;3.05;;;4.70;99.90;;;;;;5075201;28;20085;-61
2022/01/28 07:40:25;;;;;;;20.83;3.72;;;4.60;99.90;;;;;;5057100;28;20136;-61
2022/01/28 07:42:51;;;;;;;20.17;3.65;;;4.50;99.90;;;;;;5074921;28;20059;-61
2022/01/28 07:45:17;;;;;;;21.67;3.80;;;4.50;99.90;;;;;;5057346;28;20048;-60
2022/01/28 07:47:44;;;;;;;27.48;3.60;;;4.50;99.90;;;;;;5073986;28;20045;-60
2022/01/28 07:50:11;;;;;;;20.67;4.82;;;4.40;99.90;;;;;;5075024;28;20052;-59
2022/01/28 07:52:38;;;;;;;24.27;4.50;;;4.40;99.90;;;;;;5074725;28;20143;-59
2022/01/28 07:55:05;;;;;;;21.95;4.88;;;4.30;99.90;;;;;;5056813;28;20064;-60
2022/01/28 07:57:31;;;;;;;23.65;4.45;;;4.30;99.90;;;;;;5074694;28;20048;-60
2022/01/28 07:59:58;;;;;;;23.80;3.33;;;4.30;99.90;;;;;;5074545;28;20080;-60
2022/01/28 08:02:23;;;;;;;20.75;4.32;;;4.30;99.90;;;;;;5077684;28;20096;-59
2022/01/28 08:04:49;;;;;;;29.08;4.65;;;4.40;99.90;;;;;;5078131;28;20088;-59
2022/01/28 08:07:15;;;;;;;20.10;3.35;;;4.30;99.90;;;;;;5060938;28;20072;-60
2022/01/28 08:09:41;;;;;;;21.45;3.47;;;4.20;99.90;;;;;;5077868;28;20066;-60
2022/01/28 08:12:07;;;;;;;23.70;3.90;;;4.20;99.90;;;;;;5084498;28;20123;-60
2022/01/28 08:14:33;;;;;;;26.33;4.25;;;4.20;99.90;;;;;;5080109;28;20052;-60
2022/01/28 08:16:59;;;;;;;19.65;3.42;;;4.20;99.90;;;;;;5098336;28;20070;-60
2022/01/28 08:19:25;;;;;;;26.77;3.58;;;4.20;99.90;;;;;;5097974;28;20107;-59
2022/01/28 08:21:51;;;;;;;19.65;4.68;;;4.20;99.90;;;;;;5079664;28;20063;-60
2022/01/28 08:24:16;;;;;;;25.38;4.57;;;4.30;99.90;;;;;;5080099;28;20096;-59
2022/01/28 08:26:42;;;;;;;24.20;3.72;;;4.40;99.90;;;;;;5073364;28;20062;-60
2022/01/28 08:29:08;;;;;;;23.08;4.32;;;4.50;99.90;;;;;;5076939;28;20071;-59
2022/01/28 08:31:34;;;;;;;24.98;4.03;;;4.50;99.90;;;;;;5076166;28;20051;-60
2022/01/28 08:34:01;;;;;;;18.33;3.58;;;4.50;99.90;;;;;;5076632;28;20108;-59
2022/01/28 08:36:27;;;;;;;16.40;4.45;;;4.50;99.90;;;;;;5076346;28;20044;-59
2022/01/28 08:38:55;;;;;;;21.52;4.10;;;4.60;99.90;;;;;;5076074;28;20071;-60
2022/01/28 08:41:24;;;;;;;24.45;3.45;;;4.60;99.90;;;;;;5076517;28;21229;-59
2022/01/28 08:43:54;;;;;;;28.38;4.50;;;4.70;99.90;;;;;;5075665;28;20096;-60
2022/01/28 08:46:19;;;;;;;24.77;4.85;;;4.70;99.90;;;;;;5078864;28;20055;-60
2022/01/28 08:48:45;;;;;;;25.30;3.45;;;4.70;99.90;;;;;;5077656;28;20056;-60
2022/01/28 08:51:11;;;;;;;25.13;4.10;;;4.70;99.90;;;;;;5090829;28;20535;-59
2022/01/28 08:53:38;;;;;;;23.80;4.80;;;4.70;99.90;;;;;;5097870;28;20044;-60
2022/01/28 08:56:04;;;;;;;27.58;4.43;;;4.70;99.90;;;;;;5097517;28;20052;-60
2022/01/28 08:58:30;;;;;;;23.30;3.72;;;4.70;99.90;;;;;;5046573;28;20093;-59
2022/01/28 09:00:55;;;;;;;20.63;4.53;;;4.80;99.90;;;;;;5096753;28;20056;-59
2022/01/28 09:03:22;;;;;;;32.75;4.68;;;4.80;99.90;;;;;;5097506;28;20123;-59
2022/01/28 09:05:48;;;;;;;22.85;4.85;;;4.80;99.90;;;;;;5096939;28;20047;-60
2022/01/28 09:08:14;;;;;;;26.02;4.40;;;4.90;99.90;;;;;;5097295;28;20509;-60
2022/01/28 09:10:44;;;;;;;22.85;4.55;;;5.00;99.90;;;;;;5097104;28;20123;-59
2022/01/28 09:13:22;;;;;;;31.48;4.47;;;5.10;99.90;;;;;;5077661;28;20137;-60
2022/01/28 09:15:49;;;;;;;21.80;4.72;;;5.20;99.90;;;;;;5079054;28;20051;-60
2022/01/28 09:18:15;;;;;;;21.55;4.15;;;5.30;99.90;;;;;;5097161;28;20040;-60
2022/01/28 09:20:41;;;;;;;25.83;4.47;;;5.40;99.90;;;;;;5062089;28;20598;-60
2022/01/28 09:23:08;;;;;;;28.23;5.28;;;5.50;99.90;;;;;;5078534;28;20048;-59
2022/01/28 09:25:34;;;;;;;21.05;4.25;;;5.60;99.90;;;;;;5096894;28;20048;-60
2022/01/28 09:28:01;;;;;;;24.35;4.10;;;5.70;99.90;;;;;;5097000;28;20043;-59
2022/01/28 09:30:27;;;;;;;31.17;5.65;;;5.70;99.90;;;;;;5096616;28;20066;-59
2022/01/28 09:32:53;;;;;;;24.15;4.20;;;5.90;99.90;;;;;;5079040;28;20918;-60
2022/01/28 09:35:19;;;;;;;22.45;3.97;;;5.80;99.90;;;;;;5061442;28;20043;-59
2022/01/28 09:37:45;;;;;;;21.38;4.05;;;5.80;99.90;;;;;;5096655;28;20055;-60
2022/01/28 09:40:12;;;;;;;39.05;6.53;;;5.80;99.90;;;;;;5096671;28;20055;-59
2022/01/28 09:42:41;;;;;;;24.20;5.40;;;5.80;99.90;;;;;;5096521;28;20063;-59
2022/01/28 09:45:09;;;;;;;23.60;3.78;;;5.80;99.90;;;;;;5097086;28;20044;-59
2022/01/28 09:47:36;;;;;;;24.40;4.25;;;5.80;99.90;;;;;;5077515;28;20048;-59
2022/01/28 09:50:05;;;;;;;23.55;4.90;;;5.80;99.90;;;;;;5096421;28;20050;-60
2022/01/28 09:52:31;;;;;;;23.08;4.60;;;5.90;99.90;;;;;;5096094;28;20055;-59
2022/01/28 09:54:57;;;;;;;25.80;4.55;;;5.80;99.90;;;;;;5077852;28;20147;-60
2022/01/28 09:57:23;;;;;;;17.17;4.18;;;5.80;99.90;;;;;;5096327;28;20695;-60
2022/01/28 09:59:49;;;;;;;21.48;3.97;;;5.80;99.90;;;;;;5077853;28;20108;-59
2022/01/28 10:02:15;;;;;;;29.45;4.88;;;5.80;99.90;;;;;;5078469;28;20096;-59
2022/01/28 10:04:41;;;;;;;30.42;4.25;;;5.80;99.90;;;;;;5077926;28;20117;-59
2022/01/28 10:07:10;;;;;;;21.58;3.80;;;5.80;99.90;;;;;;5096938;28;20123;-59
2022/01/28 10:09:37;;;;;;;19.20;3.90;;;5.90;99.90;;;;;;5078053;28;20049;-60
2022/01/28 10:12:20;;;;;;;22.95;4.63;;;5.80;99.90;;;;;;5102820;28;20090;-60
2022/01/28 10:15:06;;;;;;;25.50;4.38;;;5.90;99.90;;;;;;5116778;28;20078;-59
2022/01/28 10:17:55;;;;;;;24.77;4.40;;;5.90;99.90;;;;;;5116247;28;20039;-59
2022/01/28 10:20:22;;;;;;;21.10;3.60;;;5.90;99.90;;;;;;5116522;28;20070;-60
2022/01/28 10:22:52;;;;;;;26.52;6.00;;;6.00;99.90;;;;;;5116036;28;20066;-59
2022/01/28 10:25:25;;;;;;;30.10;5.32;;;5.90;99.90;;;;;;5116297;28;20047;-60
2022/01/28 10:28:01;;;;;;;24.27;4.70;;;6.00;99.90;;;;;;5106695;28;20082;-59
2022/01/28 10:30:27;;;;;;;21.42;3.38;;;6.00;99.90;;;;;;5077672;28;20520;-59
2022/01/28 10:33:17;;;;;;;26.05;5.78;;;6.00;99.90;;;;;;5096372;28;20044;-59
2022/01/28 10:36:02;;;;;;;28.98;5.68;;;6.00;99.90;;;;;;5095460;28;20065;-59
2022/01/28 10:38:29;;;;;;;24.73;5.07;;;6.00;99.90;;;;;;5095886;28;20044;-59
2022/01/28 10:41:20;;;;;;;21.30;4.28;;;6.00;99.90;;;;;;5096226;28;20084;-59
2022/01/28 10:43:52;;;;;;;28.50;4.53;;;6.00;99.90;;;;;;5077404;28;20052;-60
2022/01/28 10:46:26;;;;;;;27.38;4.57;;;6.10;99.90;;;;;;5090757;28;20060;-59
2022/01/28 10:48:58;;;;;;;22.70;3.50;;;6.10;99.90;;;;;;5075050;28;20075;-59
2022/01/28 10:51:39;;;;;;;22.38;5.05;;;6.10;99.90;;;;;;5075204;28;20108;-60
2022/01/28 10:54:13;;;;;;;16.02;3.30;;;6.20;99.90;;;;;;5077512;28;20071;-59
2022/01/28 10:56:50;;;;;;;25.73;4.10;;;6.20;99.90;;;;;;5058513;28;20057;-60
2022/01/28 10:59:24;;;;;;;21.23;4.60;;;6.20;99.90;;;;;;5077857;28;20128;-59
2022/01/28 11:01:52;;;;;;;26.77;4.78;;;6.20;99.90;;;;;;5077937;28;20102;-60
2022/01/28 11:04:19;;;;;;;22.42;5.00;;;6.20;99.90;;;;;;5078614;28;20445;-59
2022/01/28 11:06:46;;;;;;;21.30;3.88;;;6.30;99.90;;;;;;5078872;28;20037;-58
2022/01/28 11:09:14;;;;;;;23.45;4.38;;;6.40;99.90;;;;;;5078066;28;20499;-59
2022/01/28 11:11:40;;;;;;;29.48;4.50;;;6.40;99.90;;;;;;5064049;28;20052;-58
2022/01/28 11:14:07;;;;;;;22.20;4.82;;;6.50;99.90;;;;;;5098138;28;20040;-59
2022/01/28 11:16:32;;;;;;;21.73;3.38;;;6.50;99.90;;;;;;5080158;28;20050;-59
2022/01/28 11:18:59;;;;;;;24.50;4.07;;;6.50;99.90;;;;;;5098851;28;20123;-58
2022/01/28 11:21:52;;;;;;;22.00;4.82;;;6.40;99.90;;;;;;5098324;28;20460;-58
2022/01/28 11:24:54;;;;;;;16.65;3.75;;;6.40;99.90;;;;;;5098878;28;20406;-59
2022/01/28 11:27:33;;;;;;;19.95;4.88;;;6.40;99.90;;;;;;5075227;28;20078;-59
2022/01/28 11:30:25;;;;;;;17.10;3.92;;;6.50;99.90;;;;;;5077952;28;20040;-59
2022/01/28 11:33:05;;;;;;;20.85;3.60;;;6.70;99.90;;;;;;5078930;28;20052;-59
2022/01/28 11:35:37;;;;;;;21.58;3.80;;;6.80;99.90;;;;;;5060137;28;20110;-59
2022/01/28 11:38:25;;;;;;;16.35;3.92;;;6.90;99.90;;;;;;5081972;28;20048;-59
2022/01/28 11:41:00;;;;;;;22.75;3.88;;;6.90;99.90;;;;;;5082103;28;20048;-59
2022/01/28 11:43:28;;;;;;;17.92;3.42;;;6.90;99.90;;;;;;5047037;28;20127;-59
2022/01/28 11:46:08;;;;;;;22.88;3.25;;;6.80;99.90;;;;;;5081973;28;20398;-59
2022/01/28 11:48:52;;;;;;;21.88;3.35;;;6.80;99.90;;;;;;5081638;28;20036;-59
2022/01/28 11:51:23;;;;;;;22.05;3.53;;;6.80;99.90;;;;;;5081605;28;20036;-59
2022/01/28 11:53:55;;;;;;;20.25;3.53;;;6.80;99.90;;;;;;5082406;28;20535;-59
2022/01/28 11:56:21;;;;;;;15.80;3.58;;;6.70;99.90;;;;;;5063349;28;20077;-59
2022/01/28 11:58:58;;;;;;;24.52;4.90;;;6.70;99.90;;;;;;5063913;28;20033;-59
2022/01/28 12:01:36;;;;;;;20.60;3.38;;;6.60;99.90;;;;;;5081385;28;20119;-59
2022/01/28 12:04:24;;;;;;;19.92;3.50;;;6.70;99.90;;;;;;5081646;28;20063;-59
2022/01/28 12:07:00;;;;;;;18.10;3.25;;;6.80;99.90;;;;;;5082250;28;20045;-59
2022/01/28 12:09:28;;;;;;;23.13;3.55;;;7.00;99.90;;;;;;5081178;28;20119;-59
2022/01/28 12:11:54;;;;;;;16.48;2.80;;;7.00;99.90;;;;;;5063529;28;20037;-59
2022/01/28 12:14:54;;;;;;;17.20;2.70;;;6.90;99.90;;;;;;5081451;28;20106;-59
2022/01/28 12:17:29;;;;;;;19.70;3.38;;;6.80;99.90;;;;;;5081351;28;20059;-59
2022/01/28 12:20:22;;;;;;;15.25;2.92;;;6.70;99.90;;;;;;5063570;28;20041;-59
2022/01/28 12:23:00;;;;;;;15.80;3.03;;;6.80;99.90;;;;;;5081086;28;20052;-59
2022/01/28 12:25:40;;;;;;;18.25;2.92;;;6.80;99.90;;;;;;5081379;28;20048;-59
2022/01/28 12:28:18;;;;;;;21.60;3.50;;;6.90;99.90;;;;;;5081764;28;20041;-59
2022/01/28 12:30:48;;;;;;;18.40;3.20;;;7.00;99.90;;;;;;5062826;28;20049;-59
2022/01/28 12:33:19;;;;;;;18.13;3.20;;;7.00;99.90;;;;;;5081099;28;20112;-59
2022/01/28 12:35:49;;;;;;;15.63;3.17;;;7.10;99.90;;;;;;5061891;28;20068;-58
2022/01/28 12:38:15;;;;;;;18.98;4.00;;;7.20;99.90;;;;;;5080672;28;20037;-59
2022/01/28 12:40:48;;;;;;;16.10;3.10;;;7.10;99.90;;;;;;5079196;28;20050;-60
2022/01/28 12:43:18;;;;;;;16.13;3.15;;;7.10;99.90;;;;;;5046129;28;20112;-60
2022/01/28 12:46:02;;;;;;;20.23;3.67;;;7.10;99.90;;;;;;5062981;28;20056;-60
2022/01/28 12:48:28;;;;;;;18.15;3.38;;;7.20;99.90;;;;;;5078942;28;20124;-61
2022/01/28 12:50:55;;;;;;;24.65;4.47;;;7.20;99.90;;;;;;5061816;28;20071;-61
2022/01/28 12:53:40;;;;;;;16.77;3.17;;;7.40;99.90;;;;;;5062482;28;20041;-60
2022/01/28 12:56:07;;;;;;;16.10;3.08;;;7.30;99.90;;;;;;5078081;28;20084;-61
2022/01/28 12:58:36;;;;;;;18.55;2.75;;;7.30;99.90;;;;;;5061810;28;20043;-61
2022/01/28 13:01:06;;;;;;;20.77;2.97;;;7.30;99.90;;;;;;5059479;28;20083;-61
2022/01/28 13:03:37;;;;;;;26.88;3.75;;;7.20;99.90;;;;;;5062036;28;20032;-61
2022/01/28 13:06:40;;;;;;;22.67;3.65;;;7.20;99.90;;;;;;5077971;28;20562;-60
2022/01/28 13:09:23;;;;;;;17.05;2.88;;;7.20;99.90;;;;;;5059494;28;20063;-60
2022/01/28 13:12:01;;;;;;;18.90;3.50;;;7.30;99.90;;;;;;5078385;28;20036;-61
2022/01/28 13:14:26;;;;;;;14.98;2.83;;;7.30;99.90;;;;;;5059723;28;20048;-61
2022/01/28 13:16:52;;;;;;;20.17;4.57;;;7.20;99.90;;;;;;5061517;28;20037;-61
2022/01/28 13:19:18;;;;;;;19.23;2.50;;;7.10;99.90;;;;;;5061670;28;20082;-61
2022/01/28 13:21:46;;;;;;;16.15;3.83;;;7.10;99.90;;;;;;5061121;28;20070;-61
2022/01/28 13:24:24;;;;;;;16.45;3.00;;;7.00;99.90;;;;;;5080030;28;20044;-61
2022/01/28 13:27:02;;;;;;;16.55;2.90;;;7.10;99.90;;;;;;5079709;28;20584;-62
2022/01/28 13:29:31;;;;;;;22.40;3.55;;;7.10;99.90;;;;;;5080093;28;20047;-61
2022/01/28 13:31:58;;;;;;;17.27;2.40;;;7.20;99.90;;;;;;5080159;28;20151;-61
2022/01/28 13:34:25;;;;;;;17.02;3.45;;;7.10;99.90;;;;;;5079860;28;20032;-61
2022/01/28 13:36:53;;;;;;;15.85;2.70;;;7.10;99.90;;;;;;5080575;28;20114;-61
2022/01/28 13:39:22;;;;;;;19.48;3.65;;;7.10;99.90;;;;;;5061215;28;20042;-61
2022/01/28 13:42:04;;;;;;;20.35;3.33;;;7.10;99.90;;;;;;5079945;28;20520;-61
2022/01/28 13:44:33;;;;;;;18.40;3.95;;;7.10;99.90;;;;;;5061374;28;20056;-62
2022/01/28 13:47:02;;;;;;;22.13;3.10;;;7.10;99.90;;;;;;5079379;28;20052;-61
2022/01/28 13:49:33;;;;;;;18.00;3.20;;;7.10;99.90;;;;;;5079945;28;20055;-61
2022/01/28 13:52:11;;;;;;;12.93;2.88;;;7.10;99.90;;;;;;5061179;28;20074;-61
2022/01/28 13:54:38;;;;;;;21.48;2.60;;;7.10;99.90;;;;;;5061629;28;20056;-61
2022/01/28 13:57:06;;;;;;;15.13;3.10;;;7.00;99.90;;;;;;5079419;28;20097;-61
2022/01/28 13:59:33;;;;;;;15.75;2.75;;;6.90;99.90;;;;;;5079163;28;20040;-61
2022/01/28 14:02:00;;;;;;;12.30;2.50;;;6.80;99.90;;;;;;5079542;28;20052;-61
2022/01/28 14:04:37;;;;;;;19.85;2.78;;;6.70;99.90;;;;;;5079139;28;20044;-61
2022/01/28 14:07:21;;;;;;;17.60;2.80;;;6.70;99.90;;;;;;5045038;28;20051;-61
2022/01/28 14:09:57;;;;;;;16.70;2.75;;;6.60;99.90;;;;;;5061399;28;20506;-61
2022/01/28 14:12:26;;;;;;;14.00;2.40;;;6.60;99.90;;;;;;5089029;28;20047;-61